sensor_id;sensor_type;location;lat;lon;timestamp;P1;durP1;ratioP1;P2;durP2;ratioP2
20861;SDS011;10591;52.532;13.348;2023-05-29T00:00:05;9.10;;;5.10;;
20861;SDS011;10591;52.532;13.348;2023-05-29T00:02:37;8.97;;;4.50;;
20861;SDS011;10591;52.532;13.348;2023-05-29T00:05:08;7.22;;;4.85;;
20861;SDS011;10591;52.532;13.348;2023-05-29T00:07:40;7.63;;;4.87;;
20861;SDS011;10591;52.532;13.348;2023-05-29T00:10:11;6.47;;;4.53;;
20861;SDS011;10591;52.532;13.348;2023-05-29T00:12:42;10.32;;;4.53;;
20861;SDS011;10591;52.532;13.348;2023-05-29T00:15:12;10.35;;;4.20;;
20861;SDS011;10591;52.532;13.348;2023-05-29T00:17:43;10.67;;;4.80;;
20861;SDS011;10591;52.532;13.348;2023-05-29T00:20:14;7.33;;;4.50;;
20861;SDS011;10591;52.532;13.348;2023-05-29T00:22:47;9.30;;;5.15;;
20861;SDS011;10591;52.532;13.348;2023-05-29T00:25:19;7.37;;;5.15;;
20861;SDS011;10591;52.532;13.348;2023-05-29T00:27:52;7.70;;;4.45;;
20861;SDS011;10591;52.532;13.348;2023-05-29T00:30:25;8.60;;;5.20;;
20861;SDS011;10591;52.532;13.348;2023-05-29T00:32:55;6.67;;;4.30;;
20861;SDS011;10591;52.532;13.348;2023-05-29T00:35:26;7.20;;;4.10;;
20861;SDS011;10591;52.532;13.348;2023-05-29T00:37:57;8.75;;;4.87;;
20861;SDS011;10591;52.532;13.348;2023-05-29T00:40:28;8.33;;;4.30;;
20861;SDS011;10591;52.532;13.348;2023-05-29T00:42:58;6.83;;;4.47;;
20861;SDS011;10591;52.532;13.348;2023-05-29T00:45:29;8.10;;;4.65;;
20861;SDS011;10591;52.532;13.348;2023-05-29T00:48:00;9.05;;;4.35;;
20861;SDS011;10591;52.532;13.348;2023-05-29T00:50:32;7.53;;;4.07;;
20861;SDS011;10591;52.532;13.348;2023-05-29T00:53:03;7.93;;;3.97;;
20861;SDS011;10591;52.532;13.348;2023-05-29T00:55:37;7.43;;;4.50;;
20861;SDS011;10591;52.532;13.348;2023-05-29T00:58:08;6.28;;;4.35;;
20861;SDS011;10591;52.532;13.348;2023-05-29T01:00:40;6.93;;;4.23;;
20861;SDS011;10591;52.532;13.348;2023-05-29T01:03:12;9.08;;;4.60;;
20861;SDS011;10591;52.532;13.348;2023-05-29T01:05:49;6.80;;;4.45;;
20861;SDS011;10591;52.532;13.348;2023-05-29T01:08:22;7.67;;;4.40;;
20861;SDS011;10591;52.532;13.348;2023-05-29T01:10:54;7.93;;;4.50;;
20861;SDS011;10591;52.532;13.348;2023-05-29T01:13:27;7.37;;;4.67;;
20861;SDS011;10591;52.532;13.348;2023-05-29T01:16:08;7.13;;;4.77;;
20861;SDS011;10591;52.532;13.348;2023-05-29T01:18:54;6.22;;;4.35;;
20861;SDS011;10591;52.532;13.348;2023-05-29T01:27:14;7.73;;;4.77;;
20861;SDS011;10591;52.532;13.348;2023-05-29T01:29:43;8.18;;;4.37;;
20861;SDS011;10591;52.532;13.348;2023-05-29T01:32:15;7.65;;;4.35;;
20861;SDS011;10591;52.532;13.348;2023-05-29T01:34:46;8.90;;;4.63;;
20861;SDS011;10591;52.532;13.348;2023-05-29T01:37:17;7.37;;;4.77;;
20861;SDS011;10591;52.532;13.348;2023-05-29T01:39:47;8.38;;;4.97;;
20861;SDS011;10591;52.532;13.348;2023-05-29T01:42:19;11.88;;;5.60;;
20861;SDS011;10591;52.532;13.348;2023-05-29T01:44:49;7.27;;;5.27;;
20861;SDS011;10591;52.532;13.348;2023-05-29T01:47:20;11.77;;;5.60;;
20861;SDS011;10591;52.532;13.348;2023-05-29T01:49:52;11.80;;;5.17;;
20861;SDS011;10591;52.532;13.348;2023-05-29T01:52:25;8.80;;;5.10;;
20861;SDS011;10591;52.532;13.348;2023-05-29T01:54:56;9.50;;;5.20;;
20861;SDS011;10591;52.532;13.348;2023-05-29T01:57:28;11.22;;;5.53;;
20861;SDS011;10591;52.532;13.348;2023-05-29T01:59:59;8.55;;;5.50;;
20861;SDS011;10591;52.532;13.348;2023-05-29T02:02:35;8.60;;;5.30;;
20861;SDS011;10591;52.532;13.348;2023-05-29T02:05:09;9.43;;;5.72;;
20861;SDS011;10591;52.532;13.348;2023-05-29T02:07:40;8.90;;;5.17;;
20861;SDS011;10591;52.532;13.348;2023-05-29T02:10:10;7.17;;;5.00;;
20861;SDS011;10591;52.532;13.348;2023-05-29T02:12:41;9.75;;;5.03;;
20861;SDS011;10591;52.532;13.348;2023-05-29T02:15:12;6.17;;;4.63;;
20861;SDS011;10591;52.532;13.348;2023-05-29T02:17:42;7.67;;;5.08;;
20861;SDS011;10591;52.532;13.348;2023-05-29T02:20:13;6.42;;;4.67;;
20861;SDS011;10591;52.532;13.348;2023-05-29T02:22:44;8.45;;;5.28;;
20861;SDS011;10591;52.532;13.348;2023-05-29T02:25:15;7.77;;;4.60;;
20861;SDS011;10591;52.532;13.348;2023-05-29T02:27:46;9.03;;;5.27;;
20861;SDS011;10591;52.532;13.348;2023-05-29T02:30:16;8.20;;;5.12;;
20861;SDS011;10591;52.532;13.348;2023-05-29T02:32:47;8.17;;;4.87;;
20861;SDS011;10591;52.532;13.348;2023-05-29T02:35:19;8.23;;;4.67;;
20861;SDS011;10591;52.532;13.348;2023-05-29T02:37:52;7.17;;;5.35;;
20861;SDS011;10591;52.532;13.348;2023-05-29T02:40:23;10.37;;;5.40;;
20861;SDS011;10591;52.532;13.348;2023-05-29T02:42:53;8.67;;;5.17;;
20861;SDS011;10591;52.532;13.348;2023-05-29T02:45:25;8.47;;;4.77;;
20861;SDS011;10591;52.532;13.348;2023-05-29T02:47:56;7.20;;;4.77;;
20861;SDS011;10591;52.532;13.348;2023-05-29T02:50:26;6.50;;;5.23;;
20861;SDS011;10591;52.532;13.348;2023-05-29T02:52:57;7.60;;;5.17;;
20861;SDS011;10591;52.532;13.348;2023-05-29T02:55:28;8.57;;;5.30;;
20861;SDS011;10591;52.532;13.348;2023-05-29T02:58:00;10.70;;;5.13;;
20861;SDS011;10591;52.532;13.348;2023-05-29T03:00:31;9.37;;;5.00;;
20861;SDS011;10591;52.532;13.348;2023-05-29T03:03:01;7.40;;;4.90;;
20861;SDS011;10591;52.532;13.348;2023-05-29T03:05:34;6.33;;;4.50;;
20861;SDS011;10591;52.532;13.348;2023-05-29T03:08:04;9.60;;;5.47;;
20861;SDS011;10591;52.532;13.348;2023-05-29T03:10:35;6.83;;;4.70;;
20861;SDS011;10591;52.532;13.348;2023-05-29T03:13:06;8.20;;;5.07;;
20861;SDS011;10591;52.532;13.348;2023-05-29T03:15:38;10.27;;;5.50;;
20861;SDS011;10591;52.532;13.348;2023-05-29T03:18:08;8.03;;;4.70;;
20861;SDS011;10591;52.532;13.348;2023-05-29T03:20:39;6.93;;;4.47;;
20861;SDS011;10591;52.532;13.348;2023-05-29T03:23:10;8.50;;;5.40;;
20861;SDS011;10591;52.532;13.348;2023-05-29T03:25:41;8.40;;;5.37;;
20861;SDS011;10591;52.532;13.348;2023-05-29T03:28:12;7.03;;;4.83;;
20861;SDS011;10591;52.532;13.348;2023-05-29T03:30:43;7.13;;;5.00;;
20861;SDS011;10591;52.532;13.348;2023-05-29T03:33:15;7.03;;;5.03;;
20861;SDS011;10591;52.532;13.348;2023-05-29T03:35:45;7.60;;;5.30;;
20861;SDS011;10591;52.532;13.348;2023-05-29T03:38:16;8.13;;;5.10;;
20861;SDS011;10591;52.532;13.348;2023-05-29T03:40:47;7.80;;;4.80;;
20861;SDS011;10591;52.532;13.348;2023-05-29T03:43:17;7.30;;;4.63;;
20861;SDS011;10591;52.532;13.348;2023-05-29T03:45:48;5.97;;;4.23;;
20861;SDS011;10591;52.532;13.348;2023-05-29T03:48:19;7.53;;;5.07;;
20861;SDS011;10591;52.532;13.348;2023-05-29T03:50:49;6.60;;;4.80;;
20861;SDS011;10591;52.532;13.348;2023-05-29T03:53:20;6.90;;;4.00;;
20861;SDS011;10591;52.532;13.348;2023-05-29T03:55:50;7.25;;;4.67;;
20861;SDS011;10591;52.532;13.348;2023-05-29T03:58:21;8.53;;;4.50;;
20861;SDS011;10591;52.532;13.348;2023-05-29T04:00:52;8.60;;;4.80;;
20861;SDS011;10591;52.532;13.348;2023-05-29T04:03:22;7.30;;;4.50;;
20861;SDS011;10591;52.532;13.348;2023-05-29T04:05:53;5.67;;;4.37;;
20861;SDS011;10591;52.532;13.348;2023-05-29T04:08:25;8.43;;;4.40;;
20861;SDS011;10591;52.532;13.348;2023-05-29T04:10:55;6.90;;;4.58;;
20861;SDS011;10591;52.532;13.348;2023-05-29T04:13:26;9.00;;;4.20;;
20861;SDS011;10591;52.532;13.348;2023-05-29T04:15:57;8.30;;;4.75;;
20861;SDS011;10591;52.532;13.348;2023-05-29T04:18:27;7.80;;;4.60;;
20861;SDS011;10591;52.532;13.348;2023-05-29T04:20:58;7.83;;;4.65;;
20861;SDS011;10591;52.532;13.348;2023-05-29T04:23:29;5.73;;;4.10;;
20861;SDS011;10591;52.532;13.348;2023-05-29T04:26:00;6.40;;;4.23;;
20861;SDS011;10591;52.532;13.348;2023-05-29T04:28:31;7.28;;;4.20;;
20861;SDS011;10591;52.532;13.348;2023-05-29T04:31:01;6.77;;;4.33;;
20861;SDS011;10591;52.532;13.348;2023-05-29T04:33:32;6.70;;;4.27;;
20861;SDS011;10591;52.532;13.348;2023-05-29T04:36:04;6.78;;;4.45;;
20861;SDS011;10591;52.532;13.348;2023-05-29T04:38:37;6.30;;;4.00;;
20861;SDS011;10591;52.532;13.348;2023-05-29T04:41:09;6.37;;;4.80;;
20861;SDS011;10591;52.532;13.348;2023-05-29T04:43:41;5.90;;;4.33;;
20861;SDS011;10591;52.532;13.348;2023-05-29T04:46:12;5.62;;;4.65;;
20861;SDS011;10591;52.532;13.348;2023-05-29T04:48:44;5.62;;;4.12;;
20861;SDS011;10591;52.532;13.348;2023-05-29T04:51:16;6.28;;;4.25;;
20861;SDS011;10591;52.532;13.348;2023-05-29T04:53:49;6.30;;;4.10;;
20861;SDS011;10591;52.532;13.348;2023-05-29T04:56:21;5.65;;;4.10;;
20861;SDS011;10591;52.532;13.348;2023-05-29T04:58:52;6.15;;;4.37;;
20861;SDS011;10591;52.532;13.348;2023-05-29T05:01:24;6.83;;;4.60;;
20861;SDS011;10591;52.532;13.348;2023-05-29T05:03:55;5.37;;;4.08;;
20861;SDS011;10591;52.532;13.348;2023-05-29T05:06:25;4.72;;;4.20;;
20861;SDS011;10591;52.532;13.348;2023-05-29T05:08:58;6.00;;;4.12;;
20861;SDS011;10591;52.532;13.348;2023-05-29T05:11:29;5.22;;;3.87;;
20861;SDS011;10591;52.532;13.348;2023-05-29T05:14:00;5.97;;;4.20;;
20861;SDS011;10591;52.532;13.348;2023-05-29T05:16:30;5.83;;;3.70;;
20861;SDS011;10591;52.532;13.348;2023-05-29T05:19:02;4.53;;;3.45;;
20861;SDS011;10591;52.532;13.348;2023-05-29T05:21:33;5.17;;;3.92;;
20861;SDS011;10591;52.532;13.348;2023-05-29T05:24:04;4.40;;;3.60;;
20861;SDS011;10591;52.532;13.348;2023-05-29T05:26:36;4.40;;;3.67;;
20861;SDS011;10591;52.532;13.348;2023-05-29T05:29:07;5.28;;;3.80;;
20861;SDS011;10591;52.532;13.348;2023-05-29T05:31:37;5.05;;;3.45;;
20861;SDS011;10591;52.532;13.348;2023-05-29T05:34:08;4.55;;;3.75;;
20861;SDS011;10591;52.532;13.348;2023-05-29T05:36:39;3.98;;;3.58;;
20861;SDS011;10591;52.532;13.348;2023-05-29T05:39:10;5.40;;;3.58;;
20861;SDS011;10591;52.532;13.348;2023-05-29T05:41:40;4.15;;;3.72;;
20861;SDS011;10591;52.532;13.348;2023-05-29T05:44:11;3.98;;;3.40;;
20861;SDS011;10591;52.532;13.348;2023-05-29T05:46:41;5.50;;;3.50;;
20861;SDS011;10591;52.532;13.348;2023-05-29T05:49:12;4.17;;;3.30;;
20861;SDS011;10591;52.532;13.348;2023-05-29T05:51:42;4.92;;;3.62;;
20861;SDS011;10591;52.532;13.348;2023-05-29T05:54:14;4.45;;;3.12;;
20861;SDS011;10591;52.532;13.348;2023-05-29T05:56:45;4.70;;;3.58;;
20861;SDS011;10591;52.532;13.348;2023-05-29T05:59:16;3.50;;;3.20;;
20861;SDS011;10591;52.532;13.348;2023-05-29T06:01:46;4.40;;;3.10;;
20861;SDS011;10591;52.532;13.348;2023-05-29T06:04:17;3.40;;;3.10;;
20861;SDS011;10591;52.532;13.348;2023-05-29T06:06:48;3.95;;;3.20;;
20861;SDS011;10591;52.532;13.348;2023-05-29T06:09:18;4.47;;;3.30;;
20861;SDS011;10591;52.532;13.348;2023-05-29T06:11:51;4.58;;;3.00;;
20861;SDS011;10591;52.532;13.348;2023-05-29T06:14:22;4.35;;;3.40;;
20861;SDS011;10591;52.532;13.348;2023-05-29T06:16:54;3.83;;;3.05;;
20861;SDS011;10591;52.532;13.348;2023-05-29T06:19:25;3.12;;;2.83;;
20861;SDS011;10591;52.532;13.348;2023-05-29T06:21:56;4.60;;;2.98;;
20861;SDS011;10591;52.532;13.348;2023-05-29T06:24:26;3.65;;;2.77;;
20861;SDS011;10591;52.532;13.348;2023-05-29T06:26:57;4.00;;;3.08;;
20861;SDS011;10591;52.532;13.348;2023-05-29T06:29:33;3.60;;;3.00;;
20861;SDS011;10591;52.532;13.348;2023-05-29T06:31:59;3.42;;;3.12;;
20861;SDS011;10591;52.532;13.348;2023-05-29T06:34:31;4.40;;;3.15;;
20861;SDS011;10591;52.532;13.348;2023-05-29T06:37:02;5.08;;;3.62;;
20861;SDS011;10591;52.532;13.348;2023-05-29T06:39:33;3.70;;;3.40;;
20861;SDS011;10591;52.532;13.348;2023-05-29T06:42:04;3.58;;;2.98;;
20861;SDS011;10591;52.532;13.348;2023-05-29T06:44:35;3.70;;;2.58;;
20861;SDS011;10591;52.532;13.348;2023-05-29T06:47:06;3.85;;;3.10;;
20861;SDS011;10591;52.532;13.348;2023-05-29T06:49:36;4.03;;;3.33;;
20861;SDS011;10591;52.532;13.348;2023-05-29T06:52:07;3.12;;;2.83;;
20861;SDS011;10591;52.532;13.348;2023-05-29T06:54:38;3.22;;;2.83;;
20861;SDS011;10591;52.532;13.348;2023-05-29T06:57:11;3.60;;;3.30;;
20861;SDS011;10591;52.532;13.348;2023-05-29T06:59:42;3.40;;;3.10;;
20861;SDS011;10591;52.532;13.348;2023-05-29T07:02:13;3.30;;;2.98;;
20861;SDS011;10591;52.532;13.348;2023-05-29T07:04:44;3.47;;;2.80;;
20861;SDS011;10591;52.532;13.348;2023-05-29T07:07:16;3.83;;;2.92;;
20861;SDS011;10591;52.532;13.348;2023-05-29T07:09:48;3.30;;;3.00;;
20861;SDS011;10591;52.532;13.348;2023-05-29T07:12:26;5.42;;;3.27;;
20861;SDS011;10591;52.532;13.348;2023-05-29T07:14:54;4.08;;;3.37;;
20861;SDS011;10591;52.532;13.348;2023-05-29T07:17:25;2.87;;;2.67;;
20861;SDS011;10591;52.532;13.348;2023-05-29T07:19:55;3.20;;;2.70;;
20861;SDS011;10591;52.532;13.348;2023-05-29T07:22:27;3.85;;;2.60;;
20861;SDS011;10591;52.532;13.348;2023-05-29T07:24:57;3.10;;;2.80;;
20861;SDS011;10591;52.532;13.348;2023-05-29T07:27:29;5.60;;;3.00;;
20861;SDS011;10591;52.532;13.348;2023-05-29T07:29:59;3.20;;;2.90;;
20861;SDS011;10591;52.532;13.348;2023-05-29T07:32:30;5.67;;;2.75;;
20861;SDS011;10591;52.532;13.348;2023-05-29T07:35:01;3.50;;;2.80;;
20861;SDS011;10591;52.532;13.348;2023-05-29T07:37:31;3.72;;;2.80;;
20861;SDS011;10591;52.532;13.348;2023-05-29T07:40:02;3.00;;;2.75;;
20861;SDS011;10591;52.532;13.348;2023-05-29T07:42:36;4.37;;;2.83;;
20861;SDS011;10591;52.532;13.348;2023-05-29T07:45:07;3.50;;;2.90;;
20861;SDS011;10591;52.532;13.348;2023-05-29T07:47:38;5.40;;;3.05;;
20861;SDS011;10591;52.532;13.348;2023-05-29T07:50:09;2.95;;;2.50;;
20861;SDS011;10591;52.532;13.348;2023-05-29T07:52:40;2.75;;;2.35;;
20861;SDS011;10591;52.532;13.348;2023-05-29T07:55:12;4.83;;;2.77;;
20861;SDS011;10591;52.532;13.348;2023-05-29T07:57:43;3.27;;;2.95;;
20861;SDS011;10591;52.532;13.348;2023-05-29T08:00:14;3.05;;;2.65;;
20861;SDS011;10591;52.532;13.348;2023-05-29T08:02:45;4.40;;;2.65;;
20861;SDS011;10591;52.532;13.348;2023-05-29T08:05:16;3.15;;;2.70;;
20861;SDS011;10591;52.532;13.348;2023-05-29T08:07:46;3.95;;;3.12;;
20861;SDS011;10591;52.532;13.348;2023-05-29T08:10:17;2.72;;;2.47;;
20861;SDS011;10591;52.532;13.348;2023-05-29T08:12:48;5.50;;;2.87;;
20861;SDS011;10591;52.532;13.348;2023-05-29T08:15:19;5.42;;;3.00;;
20861;SDS011;10591;52.532;13.348;2023-05-29T08:17:52;3.27;;;2.77;;
20861;SDS011;10591;52.532;13.348;2023-05-29T08:20:22;4.70;;;3.40;;
20861;SDS011;10591;52.532;13.348;2023-05-29T08:22:59;3.58;;;3.27;;
20861;SDS011;10591;52.532;13.348;2023-05-29T08:25:26;5.15;;;3.40;;
20861;SDS011;10591;52.532;13.348;2023-05-29T08:27:57;3.30;;;3.00;;
20861;SDS011;10591;52.532;13.348;2023-05-29T08:30:27;3.98;;;3.27;;
20861;SDS011;10591;52.532;13.348;2023-05-29T08:33:01;3.58;;;3.10;;
20861;SDS011;10591;52.532;13.348;2023-05-29T08:35:32;4.85;;;2.90;;
20861;SDS011;10591;52.532;13.348;2023-05-29T08:38:03;3.50;;;2.77;;
20861;SDS011;10591;52.532;13.348;2023-05-29T08:40:33;4.53;;;3.20;;
20861;SDS011;10591;52.532;13.348;2023-05-29T08:45:53;3.40;;;3.10;;
20861;SDS011;10591;52.532;13.348;2023-05-29T08:48:26;3.95;;;3.05;;
20861;SDS011;10591;52.532;13.348;2023-05-29T08:50:59;3.98;;;3.20;;
20861;SDS011;10591;52.532;13.348;2023-05-29T08:53:32;3.30;;;2.80;;
20861;SDS011;10591;52.532;13.348;2023-05-29T08:56:05;3.80;;;2.72;;
20861;SDS011;10591;52.532;13.348;2023-05-29T08:58:36;2.80;;;2.45;;
20861;SDS011;10591;52.532;13.348;2023-05-29T09:01:09;4.60;;;3.17;;
20861;SDS011;10591;52.532;13.348;2023-05-29T09:03:41;3.95;;;2.98;;
20861;SDS011;10591;52.532;13.348;2023-05-29T09:06:14;4.97;;;3.42;;
20861;SDS011;10591;52.532;13.348;2023-05-29T09:08:46;5.10;;;3.30;;
20861;SDS011;10591;52.532;13.348;2023-05-29T09:11:17;3.65;;;2.90;;
20861;SDS011;10591;52.532;13.348;2023-05-29T09:13:48;6.85;;;3.27;;
20861;SDS011;10591;52.532;13.348;2023-05-29T09:16:21;5.05;;;3.42;;
20861;SDS011;10591;52.532;13.348;2023-05-29T09:19:04;4.03;;;3.20;;
20861;SDS011;10591;52.532;13.348;2023-05-29T09:21:40;3.83;;;3.00;;
20861;SDS011;10591;52.532;13.348;2023-05-29T09:24:11;3.92;;;3.35;;
20861;SDS011;10591;52.532;13.348;2023-05-29T09:26:51;3.67;;;3.27;;
20861;SDS011;10591;52.532;13.348;2023-05-29T09:29:22;5.30;;;3.12;;
20861;SDS011;10591;52.532;13.348;2023-05-29T09:31:52;4.78;;;3.37;;
20861;SDS011;10591;52.532;13.348;2023-05-29T09:34:24;3.87;;;2.95;;
20861;SDS011;10591;52.532;13.348;2023-05-29T09:37:02;4.20;;;3.10;;
20861;SDS011;10591;52.532;13.348;2023-05-29T09:42:21;6.58;;;3.25;;
20861;SDS011;10591;52.532;13.348;2023-05-29T09:44:53;6.70;;;3.33;;
20861;SDS011;10591;52.532;13.348;2023-05-29T09:47:24;6.00;;;3.37;;
20861;SDS011;10591;52.532;13.348;2023-05-29T09:49:56;6.28;;;3.12;;
20861;SDS011;10591;52.532;13.348;2023-05-29T09:52:28;4.85;;;3.27;;
20861;SDS011;10591;52.532;13.348;2023-05-29T09:55:00;9.63;;;3.67;;
20861;SDS011;10591;52.532;13.348;2023-05-29T09:57:32;11.30;;;3.58;;
20861;SDS011;10591;52.532;13.348;2023-05-29T10:00:04;4.42;;;3.30;;
20861;SDS011;10591;52.532;13.348;2023-05-29T10:02:37;3.87;;;3.17;;
20861;SDS011;10591;52.532;13.348;2023-05-29T10:05:09;4.78;;;3.45;;
20861;SDS011;10591;52.532;13.348;2023-05-29T10:07:46;4.87;;;3.35;;
20861;SDS011;10591;52.532;13.348;2023-05-29T10:10:20;5.40;;;3.33;;
20861;SDS011;10591;52.532;13.348;2023-05-29T10:12:52;4.72;;;3.45;;
20861;SDS011;10591;52.532;13.348;2023-05-29T10:15:25;3.98;;;3.00;;
20861;SDS011;10591;52.532;13.348;2023-05-29T10:20:37;4.80;;;3.35;;
20861;SDS011;10591;52.532;13.348;2023-05-29T10:23:09;4.37;;;3.70;;
20861;SDS011;10591;52.532;13.348;2023-05-29T10:25:42;3.90;;;3.20;;
20861;SDS011;10591;52.532;13.348;2023-05-29T10:28:16;6.37;;;3.55;;
20861;SDS011;10591;52.532;13.348;2023-05-29T10:31:00;4.65;;;3.22;;
20861;SDS011;10591;52.532;13.348;2023-05-29T10:38:50;4.12;;;3.17;;
20861;SDS011;10591;52.532;13.348;2023-05-29T10:41:31;4.95;;;3.70;;
20861;SDS011;10591;52.532;13.348;2023-05-29T10:44:01;4.03;;;3.22;;
20861;SDS011;10591;52.532;13.348;2023-05-29T10:49:17;4.47;;;3.33;;
20861;SDS011;10591;52.532;13.348;2023-05-29T10:51:49;3.22;;;2.92;;
20861;SDS011;10591;52.532;13.348;2023-05-29T10:54:24;3.75;;;3.22;;
20861;SDS011;10591;52.532;13.348;2023-05-29T10:56:56;4.45;;;2.92;;
20861;SDS011;10591;52.532;13.348;2023-05-29T10:59:29;4.90;;;3.00;;
20861;SDS011;10591;52.532;13.348;2023-05-29T11:02:04;5.37;;;3.50;;
20861;SDS011;10591;52.532;13.348;2023-05-29T11:04:35;4.15;;;3.30;;
20861;SDS011;10591;52.532;13.348;2023-05-29T11:07:06;4.65;;;3.25;;
20861;SDS011;10591;52.532;13.348;2023-05-29T11:09:38;3.35;;;3.05;;
20861;SDS011;10591;52.532;13.348;2023-05-29T11:25:36;5.17;;;3.12;;
20861;SDS011;10591;52.532;13.348;2023-05-29T11:28:08;4.95;;;3.20;;
20861;SDS011;10591;52.532;13.348;2023-05-29T11:30:45;3.52;;;2.77;;
20861;SDS011;10591;52.532;13.348;2023-05-29T11:33:24;4.70;;;3.40;;
20861;SDS011;10591;52.532;13.348;2023-05-29T11:35:58;5.12;;;3.30;;
20861;SDS011;10591;52.532;13.348;2023-05-29T11:38:30;3.98;;;2.80;;
20861;SDS011;10591;52.532;13.348;2023-05-29T11:41:02;5.20;;;2.92;;
20861;SDS011;10591;52.532;13.348;2023-05-29T11:43:33;4.00;;;3.05;;
20861;SDS011;10591;52.532;13.348;2023-05-29T11:46:16;6.10;;;3.20;;
20861;SDS011;10591;52.532;13.348;2023-05-29T11:48:47;5.12;;;3.10;;
20861;SDS011;10591;52.532;13.348;2023-05-29T11:51:18;6.60;;;3.30;;
20861;SDS011;10591;52.532;13.348;2023-05-29T11:53:49;4.30;;;3.30;;
20861;SDS011;10591;52.532;13.348;2023-05-29T11:56:22;3.55;;;3.25;;
20861;SDS011;10591;52.532;13.348;2023-05-29T11:58:55;3.92;;;3.02;;
20861;SDS011;10591;52.532;13.348;2023-05-29T12:01:28;5.12;;;3.10;;
20861;SDS011;10591;52.532;13.348;2023-05-29T12:03:59;3.72;;;3.00;;
20861;SDS011;10591;52.532;13.348;2023-05-29T12:06:32;3.85;;;3.08;;
20861;SDS011;10591;52.532;13.348;2023-05-29T12:09:04;4.42;;;2.70;;
20861;SDS011;10591;52.532;13.348;2023-05-29T12:11:35;3.58;;;2.95;;
20861;SDS011;10591;52.532;13.348;2023-05-29T12:14:07;4.47;;;3.10;;
20861;SDS011;10591;52.532;13.348;2023-05-29T12:16:38;5.72;;;3.08;;
20861;SDS011;10591;52.532;13.348;2023-05-29T12:19:12;4.25;;;2.98;;
20861;SDS011;10591;52.532;13.348;2023-05-29T12:21:43;5.75;;;3.20;;
20861;SDS011;10591;52.532;13.348;2023-05-29T12:24:14;5.40;;;3.10;;
20861;SDS011;10591;52.532;13.348;2023-05-29T12:26:48;4.60;;;2.98;;
20861;SDS011;10591;52.532;13.348;2023-05-29T12:29:29;5.00;;;2.83;;
20861;SDS011;10591;52.532;13.348;2023-05-29T12:32:00;3.50;;;2.95;;
20861;SDS011;10591;52.532;13.348;2023-05-29T12:34:35;4.22;;;2.62;;
20861;SDS011;10591;52.532;13.348;2023-05-29T12:37:09;4.58;;;3.00;;
20861;SDS011;10591;52.532;13.348;2023-05-29T12:39:41;3.20;;;2.90;;
20861;SDS011;10591;52.532;13.348;2023-05-29T12:42:12;3.83;;;3.30;;
20861;SDS011;10591;52.532;13.348;2023-05-29T12:44:46;4.22;;;3.05;;
20861;SDS011;10591;52.532;13.348;2023-05-29T12:47:23;6.12;;;2.77;;
20861;SDS011;10591;52.532;13.348;2023-05-29T12:49:51;3.87;;;2.90;;
20861;SDS011;10591;52.532;13.348;2023-05-29T12:52:23;4.30;;;3.02;;
20861;SDS011;10591;52.532;13.348;2023-05-29T12:54:53;4.70;;;2.90;;
20861;SDS011;10591;52.532;13.348;2023-05-29T12:57:24;4.45;;;3.33;;
20861;SDS011;10591;52.532;13.348;2023-05-29T12:59:55;5.55;;;3.10;;
20861;SDS011;10591;52.532;13.348;2023-05-29T13:02:25;4.90;;;3.27;;
20861;SDS011;10591;52.532;13.348;2023-05-29T13:04:58;4.97;;;3.25;;
20861;SDS011;10591;52.532;13.348;2023-05-29T13:07:29;4.17;;;3.00;;
20861;SDS011;10591;52.532;13.348;2023-05-29T13:10:01;4.20;;;2.85;;
20861;SDS011;10591;52.532;13.348;2023-05-29T13:12:34;5.47;;;3.35;;
20861;SDS011;10591;52.532;13.348;2023-05-29T13:15:05;4.58;;;3.00;;
20861;SDS011;10591;52.532;13.348;2023-05-29T13:17:36;3.17;;;2.87;;
20861;SDS011;10591;52.532;13.348;2023-05-29T13:20:12;5.17;;;2.90;;
20861;SDS011;10591;52.532;13.348;2023-05-29T13:22:44;4.20;;;2.83;;
20861;SDS011;10591;52.532;13.348;2023-05-29T13:25:16;5.35;;;3.20;;
20861;SDS011;10591;52.532;13.348;2023-05-29T13:27:49;7.33;;;3.10;;
20861;SDS011;10591;52.532;13.348;2023-05-29T13:30:22;4.35;;;3.00;;
20861;SDS011;10591;52.532;13.348;2023-05-29T13:32:54;6.33;;;3.37;;
20861;SDS011;10591;52.532;13.348;2023-05-29T13:35:24;5.53;;;3.15;;
20861;SDS011;10591;52.532;13.348;2023-05-29T13:37:55;4.40;;;3.20;;
20861;SDS011;10591;52.532;13.348;2023-05-29T13:40:27;4.95;;;3.00;;
20861;SDS011;10591;52.532;13.348;2023-05-29T13:42:58;6.42;;;3.50;;
20861;SDS011;10591;52.532;13.348;2023-05-29T13:45:28;5.20;;;3.40;;
20861;SDS011;10591;52.532;13.348;2023-05-29T13:47:59;5.53;;;3.50;;
20861;SDS011;10591;52.532;13.348;2023-05-29T13:50:30;5.22;;;2.90;;
20861;SDS011;10591;52.532;13.348;2023-05-29T13:53:02;5.42;;;3.42;;
20861;SDS011;10591;52.532;13.348;2023-05-29T13:55:33;3.65;;;2.90;;
20861;SDS011;10591;52.532;13.348;2023-05-29T13:58:03;3.98;;;3.02;;
20861;SDS011;10591;52.532;13.348;2023-05-29T14:00:34;3.98;;;2.95;;
20861;SDS011;10591;52.532;13.348;2023-05-29T14:03:05;4.80;;;2.90;;
20861;SDS011;10591;52.532;13.348;2023-05-29T14:05:37;4.30;;;2.80;;
20861;SDS011;10591;52.532;13.348;2023-05-29T14:08:07;4.45;;;3.12;;
20861;SDS011;10591;52.532;13.348;2023-05-29T14:10:38;3.87;;;3.05;;
20861;SDS011;10591;52.532;13.348;2023-05-29T14:13:10;5.97;;;3.35;;
20861;SDS011;10591;52.532;13.348;2023-05-29T14:15:41;5.22;;;3.20;;
20861;SDS011;10591;52.532;13.348;2023-05-29T14:18:12;5.78;;;3.17;;
20861;SDS011;10591;52.532;13.348;2023-05-29T14:20:42;4.87;;;3.00;;
20861;SDS011;10591;52.532;13.348;2023-05-29T14:23:17;3.83;;;2.83;;
20861;SDS011;10591;52.532;13.348;2023-05-29T14:25:49;5.30;;;3.22;;
20861;SDS011;10591;52.532;13.348;2023-05-29T14:28:23;4.83;;;2.80;;
20861;SDS011;10591;52.532;13.348;2023-05-29T14:30:55;3.87;;;2.80;;
20861;SDS011;10591;52.532;13.348;2023-05-29T14:33:26;6.60;;;3.05;;
20861;SDS011;10591;52.532;13.348;2023-05-29T14:35:57;4.15;;;2.60;;
20861;SDS011;10591;52.532;13.348;2023-05-29T14:38:28;3.72;;;2.77;;
20861;SDS011;10591;52.532;13.348;2023-05-29T14:40:59;3.72;;;2.50;;
20861;SDS011;10591;52.532;13.348;2023-05-29T14:43:32;3.90;;;2.30;;
20861;SDS011;10591;52.532;13.348;2023-05-29T14:46:02;6.55;;;2.87;;
20861;SDS011;10591;52.532;13.348;2023-05-29T14:48:33;4.17;;;2.67;;
20861;SDS011;10591;52.532;13.348;2023-05-29T14:51:04;4.33;;;2.65;;
20861;SDS011;10591;52.532;13.348;2023-05-29T14:53:35;3.47;;;2.77;;
20861;SDS011;10591;52.532;13.348;2023-05-29T14:56:07;5.05;;;2.70;;
20861;SDS011;10591;52.532;13.348;2023-05-29T14:58:37;7.40;;;2.70;;
20861;SDS011;10591;52.532;13.348;2023-05-29T15:01:10;5.35;;;2.80;;
20861;SDS011;10591;52.532;13.348;2023-05-29T15:03:41;4.15;;;2.50;;
20861;SDS011;10591;52.532;13.348;2023-05-29T15:06:14;5.22;;;3.08;;
20861;SDS011;10591;52.532;13.348;2023-05-29T15:08:45;4.70;;;2.70;;
20861;SDS011;10591;52.532;13.348;2023-05-29T15:11:19;5.92;;;2.70;;
20861;SDS011;10591;52.532;13.348;2023-05-29T15:13:52;3.95;;;2.60;;
20861;SDS011;10591;52.532;13.348;2023-05-29T15:16:23;5.85;;;3.20;;
20861;SDS011;10591;52.532;13.348;2023-05-29T15:18:53;4.58;;;2.50;;
20861;SDS011;10591;52.532;13.348;2023-05-29T15:21:24;4.25;;;3.00;;
20861;SDS011;10591;52.532;13.348;2023-05-29T15:23:55;3.70;;;2.12;;
20861;SDS011;10591;52.532;13.348;2023-05-29T15:26:25;3.98;;;2.60;;
20861;SDS011;10591;52.532;13.348;2023-05-29T15:28:57;4.35;;;2.50;;
20861;SDS011;10591;52.532;13.348;2023-05-29T15:31:28;5.80;;;2.52;;
20861;SDS011;10591;52.532;13.348;2023-05-29T15:33:59;4.10;;;2.45;;